Lenox, Michigan
Current Conditions -  °F | °C
As of 2:58 AM on Wednesday 22 Oct 2014 (Local Time) from KMTC Reporting Station
Overcast Overcast  
Wind Chill: 41°   Ceiling: 1900
Heat Index: 46°   Visibility: 10mi
Dew Point: 40°   Wind: 12mph
Humidity: 80%   Direction: 10°N
Pressure: 30.19"   Gusts: NA
Location:  42.7851°N, 82.803°W
Report Text: KMTC 220658Z AUTO 01010KT 10SM OVC019 08/05 A3019 RMK AO2 SLP230 T00790047 $
Loading
Personal Weather Stations






























Interactive Weather Map New forecast layout! Learn more

10-Day Weather Forecast

Advertisements
Track Severe Weather on mobile